Time;durP1;ratioP1;P1;durP2;ratioP2;P2;SDS_P1;SDS_P2;PMS_P1;PMS_P2;Temp;Humidity;BMP_temperature;BMP_pressure;BME280_temperature;BME280_humidity;BME280_pressure;Samples;Min_cycle;Max_cycle;Signal;HPM_P1;HPM_P2
2022/02/26 00:00:38;;;;;;;12.23;4.47;;;6.50;99.90;;;;;;5034464;28;20030;-88
2022/02/26 00:03:05;;;;;;;11.98;4.90;;;6.50;99.90;;;;;;5034921;28;20407;-90
2022/02/26 00:05:30;;;;;;;8.80;3.40;;;6.90;99.90;;;;;;5018220;28;20167;-88
2022/02/26 00:07:56;;;;;;;9.40;3.95;;;6.90;99.90;;;;;;5034229;28;20108;-88
2022/02/26 00:10:22;;;;;;;7.65;3.72;;;7.00;99.90;;;;;;5017871;28;20551;-88
2022/02/26 00:12:48;;;;;;;10.02;3.47;;;6.50;99.90;;;;;;5016431;28;20445;-88
2022/02/26 00:15:13;;;;;;;7.93;3.40;;;6.60;99.90;;;;;;5035154;28;20033;-88
2022/02/26 00:17:39;;;;;;;9.65;3.60;;;6.70;99.90;;;;;;5033914;28;20098;-88
2022/02/26 00:20:06;;;;;;;8.57;3.42;;;6.10;99.90;;;;;;5017549;28;20486;-88
2022/02/26 00:22:32;;;;;;;9.77;3.60;;;6.10;99.90;;;;;;5017448;28;20520;-88
2022/02/26 00:24:58;;;;;;;12.95;3.60;;;6.10;99.90;;;;;;5017078;28;20025;-88
2022/02/26 00:27:23;;;;;;;10.48;4.10;;;6.60;99.90;;;;;;5016331;28;20034;-88
2022/02/26 00:29:49;;;;;;;10.43;3.90;;;6.40;99.90;;;;;;5034348;28;20056;-89
2022/02/26 00:32:14;;;;;;;8.27;3.70;;;6.00;99.90;;;;;;5019692;28;20091;-90
2022/02/26 00:34:40;;;;;;;10.13;3.78;;;6.40;99.90;;;;;;5033811;28;20021;-88
2022/02/26 00:37:06;;;;;;;9.57;4.35;;;6.40;99.90;;;;;;5033679;28;20053;-88
2022/02/26 00:39:32;;;;;;;10.43;4.05;;;6.40;99.90;;;;;;5033689;28;20464;-88
2022/02/26 00:41:58;;;;;;;11.43;4.28;;;5.70;99.90;;;;;;5016085;28;20029;-88
2022/02/26 00:44:24;;;;;;;9.48;3.97;;;5.80;99.90;;;;;;5032873;28;20034;-88
2022/02/26 00:46:49;;;;;;;10.65;4.50;;;6.00;99.90;;;;;;5033662;28;20540;-88
2022/02/26 00:52:00;;;;;;;9.10;4.20;;;5.80;99.90;;;;;;5020084;28;20036;-90
2022/02/26 00:54:26;;;;;;;10.55;4.55;;;5.70;99.90;;;;;;5033549;28;20108;-88
2022/02/26 00:56:52;;;;;;;8.75;4.32;;;5.90;99.90;;;;;;5016194;28;20041;-88
2022/02/26 00:59:17;;;;;;;10.80;4.28;;;6.10;99.90;;;;;;5033277;28;20470;-88
2022/02/26 01:01:43;;;;;;;12.70;4.25;;;5.80;99.90;;;;;;5018238;28;20025;-89
2022/02/26 01:04:09;;;;;;;19.35;5.80;;;6.10;99.90;;;;;;5033274;28;20104;-88
2022/02/26 01:06:35;;;;;;;9.20;5.13;;;6.10;99.90;;;;;;5015529;28;20025;-90
2022/02/26 01:09:02;;;;;;;10.70;5.50;;;5.60;99.90;;;;;;5016120;28;20030;-91
2022/02/26 01:11:27;;;;;;;12.13;5.50;;;6.00;99.90;;;;;;5016556;28;20039;-90
2022/02/26 01:13:53;;;;;;;11.10;5.32;;;5.80;99.90;;;;;;5033076;28;20401;-89
2022/02/26 01:16:18;;;;;;;8.75;4.07;;;5.70;99.90;;;;;;5016763;28;20621;-88
2022/02/26 01:18:44;;;;;;;11.60;4.53;;;5.40;99.90;;;;;;5033111;28;20044;-90
2022/02/26 01:21:10;;;;;;;7.80;4.43;;;5.90;99.90;;;;;;5016178;28;20109;-88
2022/02/26 01:23:36;;;;;;;11.73;4.38;;;5.50;99.90;;;;;;5032940;28;20037;-89
2022/02/26 01:26:01;;;;;;;15.35;4.70;;;6.00;99.90;;;;;;5015999;28;20021;-88
2022/02/26 01:28:27;;;;;;;9.90;4.53;;;6.10;99.90;;;;;;5018694;28;20033;-88
2022/02/26 01:30:53;;;;;;;11.52;4.53;;;5.80;99.90;;;;;;5032876;28;20413;-88
2022/02/26 01:33:18;;;;;;;11.90;4.28;;;6.00;99.90;;;;;;5033384;28;20528;-90
2022/02/26 01:35:44;;;;;;;8.60;4.07;;;5.40;99.90;;;;;;5032764;28;20026;-91
2022/02/26 01:38:10;;;;;;;7.00;4.18;;;5.40;99.90;;;;;;5032024;28;20053;-91
2022/02/26 01:40:35;;;;;;;10.82;4.32;;;5.30;99.90;;;;;;5032621;28;20018;-91
2022/02/26 01:43:01;;;;;;;8.15;4.00;;;5.40;99.90;;;;;;5032611;28;20029;-90
2022/02/26 01:45:26;;;;;;;10.98;4.22;;;5.40;99.90;;;;;;5031340;28;20080;-90
2022/02/26 01:47:53;;;;;;;10.60;4.43;;;5.80;99.90;;;;;;5033109;28;20029;-91
2022/02/26 01:50:20;;;;;;;12.82;4.15;;;5.40;99.90;;;;;;5032634;28;20029;-91
2022/02/26 01:52:46;;;;;;;9.23;3.38;;;5.40;99.90;;;;;;5032251;28;20057;-90
2022/02/26 01:55:12;;;;;;;9.35;3.53;;;5.50;99.90;;;;;;5031985;28;20559;-90
2022/02/26 01:57:38;;;;;;;9.63;3.17;;;5.90;99.90;;;;;;5032330;28;20041;-90
2022/02/26 02:00:06;;;;;;;7.18;2.40;;;5.70;99.90;;;;;;5033170;28;20390;-90
2022/02/26 02:02:32;;;;;;;9.23;3.28;;;5.70;99.90;;;;;;5015669;28;20544;-91
2022/02/26 02:04:58;;;;;;;12.77;2.92;;;6.10;99.90;;;;;;5015857;28;20056;-90
2022/02/26 02:07:24;;;;;;;11.32;2.92;;;6.00;99.90;;;;;;5031992;28;20482;-90
2022/02/26 02:09:50;;;;;;;11.63;3.25;;;5.90;99.90;;;;;;5031920;28;20552;-91
2022/02/26 02:12:17;;;;;;;7.88;2.90;;;5.80;99.90;;;;;;5032350;28;20021;-91
2022/02/26 02:14:46;;;;;;;9.95;3.13;;;5.70;99.90;;;;;;5031974;28;20482;-91
2022/02/26 02:17:12;;;;;;;8.50;2.85;;;5.50;99.90;;;;;;5015746;28;20068;-90
2022/02/26 02:19:38;;;;;;;7.65;2.85;;;5.50;99.90;;;;;;5015486;28;20029;-90
2022/02/26 02:22:05;;;;;;;7.07;2.90;;;5.30;99.90;;;;;;5031679;28;20048;-90
2022/02/26 02:24:31;;;;;;;11.00;3.53;;;5.60;99.90;;;;;;5031535;28;20025;-90
2022/02/26 02:26:59;;;;;;;11.30;3.33;;;5.20;99.90;;;;;;5032197;28;20029;-91
2022/02/26 02:29:25;;;;;;;11.05;4.18;;;5.60;99.90;;;;;;5031749;28;20167;-91
2022/02/26 02:31:50;;;;;;;12.73;3.63;;;5.20;99.90;;;;;;5031510;28;20109;-90
2022/02/26 02:34:16;;;;;;;9.43;3.88;;;5.20;99.90;;;;;;5031619;28;20026;-90
2022/02/26 02:36:43;;;;;;;10.82;3.35;;;5.40;99.90;;;;;;5031550;28;22248;-89
2022/02/26 02:39:09;;;;;;;14.38;4.05;;;5.20;99.90;;;;;;5031829;28;20030;-90
2022/02/26 02:41:35;;;;;;;12.93;4.20;;;5.70;99.90;;;;;;5031595;28;20113;-90
2022/02/26 02:44:00;;;;;;;10.32;3.88;;;5.30;99.90;;;;;;5031417;28;20120;-90
2022/02/26 02:46:26;;;;;;;9.10;3.90;;;5.30;99.90;;;;;;5031514;28;20537;-90
2022/02/26 02:48:52;;;;;;;10.95;4.13;;;5.20;99.90;;;;;;5031694;28;20021;-90
2022/02/26 02:51:18;;;;;;;9.05;4.20;;;5.70;99.90;;;;;;5014071;28;20144;-89
2022/02/26 02:53:44;;;;;;;8.15;4.32;;;5.20;99.90;;;;;;5031403;28;20030;-90
2022/02/26 02:56:09;;;;;;;11.70;3.95;;;5.30;99.90;;;;;;5031264;28;20037;-90
2022/02/26 02:58:35;;;;;;;8.95;3.85;;;5.30;99.90;;;;;;5016930;28;20486;-90
2022/02/26 03:01:01;;;;;;;11.35;3.92;;;5.30;99.90;;;;;;5031509;28;20096;-90
2022/02/26 03:03:26;;;;;;;11.40;4.10;;;5.00;99.90;;;;;;5031498;28;20048;-90
2022/02/26 03:05:53;;;;;;;7.07;3.75;;;5.10;99.90;;;;;;5031546;28;20124;-90
2022/02/26 03:08:23;;;;;;;10.10;3.90;;;5.40;99.90;;;;;;5034246;28;20395;-90
2022/02/26 03:10:50;;;;;;;12.13;5.10;;;5.50;99.90;;;;;;5035814;28;20138;-89
2022/02/26 03:13:15;;;;;;;16.60;6.05;;;4.80;99.90;;;;;;5019033;28;20024;-90
2022/02/26 03:15:41;;;;;;;14.57;5.35;;;5.10;99.90;;;;;;5017761;28;20037;-90
2022/02/26 03:18:07;;;;;;;16.88;6.32;;;5.00;99.90;;;;;;5035826;28;20033;-90
2022/02/26 03:20:32;;;;;;;13.05;6.18;;;5.40;99.90;;;;;;5034716;28;20029;-90
2022/02/26 03:22:58;;;;;;;12.02;5.50;;;4.80;99.90;;;;;;5034987;28;20036;-90
2022/02/26 03:25:24;;;;;;;15.77;6.22;;;5.30;99.90;;;;;;5035036;28;20063;-90
2022/02/26 03:27:51;;;;;;;12.05;4.95;;;5.00;99.90;;;;;;5018453;28;20064;-90
2022/02/26 03:30:17;;;;;;;9.98;4.70;;;4.80;99.90;;;;;;5035516;28;20028;-89
2022/02/26 03:32:43;;;;;;;11.73;4.63;;;4.90;99.90;;;;;;5035157;28;20033;-90
2022/02/26 03:35:09;;;;;;;11.63;4.57;;;4.60;1.00;;;;;;5034547;28;20030;-90
2022/02/26 03:37:35;;;;;;;15.38;5.00;;;4.80;99.90;;;;;;5018168;28;20073;-90
2022/02/26 03:40:02;;;;;;;10.40;4.95;;;5.10;99.90;;;;;;5034832;28;20469;-90
2022/02/26 03:42:28;;;;;;;10.88;4.63;;;4.80;99.90;;;;;;5017379;28;20025;-90
2022/02/26 03:44:54;;;;;;;11.13;5.05;;;5.40;99.90;;;;;;5017875;28;20083;-90
2022/02/26 03:47:19;;;;;;;10.23;4.93;;;4.90;99.90;;;;;;5018226;28;20098;-90
2022/02/26 03:49:48;;;;;;;8.52;4.00;;;4.80;99.90;;;;;;5017805;28;20025;-90
2022/02/26 03:52:14;;;;;;;10.85;4.40;;;4.90;99.90;;;;;;5034823;28;20108;-90
2022/02/26 03:54:40;;;;;;;10.00;3.90;;;4.70;99.90;;;;;;5035037;28;20538;-90
2022/02/26 03:57:06;;;;;;;10.45;4.57;;;5.10;99.90;;;;;;5035014;28;20033;-90
2022/02/26 03:59:31;;;;;;;8.85;4.55;;;4.60;99.90;;;;;;5034572;28;20471;-90
2022/02/26 04:01:57;;;;;;;9.50;3.75;;;4.80;99.90;;;;;;5017865;28;20029;-90
2022/02/26 04:04:23;;;;;;;8.75;3.88;;;5.20;99.90;;;;;;5034212;28;20022;-90
2022/02/26 04:06:50;;;;;;;12.00;3.97;;;5.10;1.00;;;;;;5034394;28;20025;-90
2022/02/26 04:09:17;;;;;;;8.70;3.95;;;4.50;99.90;;;;;;5034699;28;20064;-90
2022/02/26 04:11:43;;;;;;;10.98;4.20;;;4.60;99.90;;;;;;5033340;28;20035;-91
2022/02/26 04:14:09;;;;;;;11.85;4.32;;;4.70;99.90;;;;;;5034586;28;20104;-91
2022/02/26 04:16:34;;;;;;;10.63;4.10;;;4.70;99.90;;;;;;5017458;28;20493;-89
2022/02/26 04:19:00;;;;;;;11.10;3.90;;;5.30;99.90;;;;;;5032550;28;20037;-90
2022/02/26 04:21:26;;;;;;;10.77;4.05;;;4.90;99.90;;;;;;5034143;28;20455;-90
2022/02/26 04:23:53;;;;;;;10.98;4.38;;;5.10;99.90;;;;;;5017347;28;20399;-89
2022/02/26 04:26:19;;;;;;;10.30;4.28;;;4.60;99.90;;;;;;5033841;28;20048;-89
2022/02/26 04:28:45;;;;;;;12.63;4.50;;;4.50;99.90;;;;;;5034424;28;20022;-90
2022/02/26 04:31:11;;;;;;;14.23;4.05;;;4.80;99.90;;;;;;5018849;28;20478;-90
2022/02/26 04:33:36;;;;;;;10.10;3.90;;;5.20;99.90;;;;;;5033454;28;20164;-90
2022/02/26 04:36:02;;;;;;;11.57;4.07;;;4.60;99.90;;;;;;5034524;28;20226;-90
2022/02/26 04:38:29;;;;;;;12.02;3.90;;;4.60;99.90;;;;;;5033554;28;20049;-90
2022/02/26 04:40:56;;;;;;;9.02;3.60;;;4.90;99.90;;;;;;5033576;28;20041;-90
2022/02/26 04:43:22;;;;;;;8.80;3.70;;;5.10;99.90;;;;;;5033652;28;20026;-90
2022/02/26 04:45:47;;;;;;;11.00;4.03;;;5.10;99.90;;;;;;5033996;28;20036;-90
2022/02/26 04:48:13;;;;;;;10.15;3.97;;;4.50;99.90;;;;;;5033826;28;20029;-90
2022/02/26 04:50:39;;;;;;;7.10;3.40;;;4.40;99.90;;;;;;5033455;28;20057;-89
2022/02/26 04:53:05;;;;;;;9.23;4.22;;;4.70;99.90;;;;;;5017090;28;20122;-90
2022/02/26 04:55:30;;;;;;;8.68;4.35;;;4.50;99.90;;;;;;5033712;28;20107;-90
2022/02/26 04:57:56;;;;;;;13.43;4.20;;;4.40;99.90;;;;;;5033364;28;20079;-89
2022/02/26 05:00:21;;;;;;;9.35;4.47;;;4.30;99.90;;;;;;5016012;28;20364;-90
2022/02/26 05:02:47;;;;;;;12.15;3.78;;;4.70;99.90;;;;;;5033313;28;20029;-89
2022/02/26 05:05:13;;;;;;;10.05;3.70;;;4.80;99.90;;;;;;5033142;28;20034;-90
2022/02/26 05:07:38;;;;;;;8.77;4.22;;;4.60;99.90;;;;;;5033315;28;20032;-90
2022/02/26 05:10:05;;;;;;;15.20;5.97;;;4.30;99.90;;;;;;5016908;28;20056;-90
2022/02/26 05:12:31;;;;;;;13.70;5.05;;;4.20;99.90;;;;;;5033327;28;20025;-90
2022/02/26 05:14:56;;;;;;;11.80;4.38;;;4.60;99.90;;;;;;5033723;28;20022;-90
2022/02/26 05:17:22;;;;;;;11.73;4.80;;;4.70;99.90;;;;;;5032590;28;20044;-89
2022/02/26 05:19:48;;;;;;;10.55;4.07;;;4.10;99.90;;;;;;5016905;28;20407;-90
2022/02/26 05:22:13;;;;;;;14.63;6.90;;;4.50;99.90;;;;;;5032538;28;20052;-90
2022/02/26 05:24:39;;;;;;;12.63;4.78;;;4.20;99.90;;;;;;5015415;28;20037;-90
2022/02/26 05:27:06;;;;;;;10.88;4.45;;;4.10;99.90;;;;;;5033746;28;20052;-90
2022/02/26 05:29:31;;;;;;;13.93;5.28;;;4.00;1.00;;;;;;5016104;28;20044;-90
2022/02/26 05:31:57;;;;;;;10.13;4.43;;;4.50;99.90;;;;;;5016014;28;20120;-90
2022/02/26 05:34:22;;;;;;;10.70;4.57;;;4.00;99.90;;;;;;5032670;28;20544;-89
2022/02/26 05:36:48;;;;;;;13.85;4.97;;;4.50;1.00;;;;;;5015066;28;20025;-89
2022/02/26 05:39:14;;;;;;;10.25;4.68;;;4.10;99.90;;;;;;5032000;28;20037;-90
2022/02/26 05:41:39;;;;;;;12.80;4.80;;;4.50;99.90;;;;;;5016303;28;20033;-90
2022/02/26 05:44:05;;;;;;;12.70;5.25;;;4.00;99.90;;;;;;5016107;28;20025;-89
2022/02/26 05:46:33;;;;;;;11.75;4.82;;;3.90;99.90;;;;;;5032037;28;20100;-90
2022/02/26 05:48:59;;;;;;;12.27;4.68;;;4.00;99.90;;;;;;5032882;28;20025;-89
2022/02/26 05:51:24;;;;;;;12.98;4.97;;;4.10;99.90;;;;;;5031406;28;20082;-89
2022/02/26 05:53:50;;;;;;;11.10;5.25;;;4.10;99.90;;;;;;5017383;28;20083;-90
2022/02/26 05:56:16;;;;;;;11.18;4.90;;;4.40;99.90;;;;;;5032213;28;20391;-90
2022/02/26 05:58:42;;;;;;;10.95;5.25;;;4.20;99.90;;;;;;5032363;28;20034;-89
2022/02/26 06:01:07;;;;;;;14.05;5.25;;;4.20;99.90;;;;;;5032082;28;20395;-89
2022/02/26 06:03:33;;;;;;;12.95;4.80;;;3.80;99.90;;;;;;5014536;28;20087;-90
2022/02/26 06:05:59;;;;;;;13.82;5.22;;;3.80;99.90;;;;;;5032901;28;20083;-90
2022/02/26 06:08:25;;;;;;;13.35;5.10;;;4.10;99.90;;;;;;5017318;28;20036;-89
2022/02/26 06:10:51;;;;;;;12.43;5.15;;;3.80;99.90;;;;;;5015674;28;20453;-90
2022/02/26 06:13:16;;;;;;;14.18;4.80;;;3.80;99.90;;;;;;5032049;28;20052;-90
2022/02/26 06:15:42;;;;;;;10.90;5.38;;;4.00;1.00;;;;;;5013848;28;20422;-90
2022/02/26 06:18:07;;;;;;;12.18;5.40;;;4.30;99.90;;;;;;5032890;28;20033;-90
2022/02/26 06:20:33;;;;;;;10.80;4.75;;;3.90;99.90;;;;;;5031809;28;20409;-90
2022/02/26 06:22:59;;;;;;;12.63;4.60;;;4.00;99.90;;;;;;5015310;28;20445;-90
2022/02/26 06:25:26;;;;;;;11.02;4.65;;;3.90;99.90;;;;;;5015339;28;20055;-90
2022/02/26 06:27:51;;;;;;;9.45;4.78;;;3.90;99.90;;;;;;5031764;28;20834;-90
2022/02/26 06:30:17;;;;;;;14.15;5.57;;;3.80;99.90;;;;;;5014393;28;20041;-89
2022/02/26 06:32:43;;;;;;;11.10;4.80;;;4.20;99.90;;;;;;5032249;28;20040;-89
2022/02/26 06:35:10;;;;;;;13.18;4.97;;;4.00;99.90;;;;;;5015384;28;20383;-90
2022/02/26 06:37:36;;;;;;;14.18;5.30;;;3.90;1.00;;;;;;5031375;28;20049;-90
2022/02/26 06:40:03;;;;;;;10.18;4.60;;;4.40;99.90;;;;;;5031524;28;20033;-90
2022/02/26 06:42:29;;;;;;;12.00;5.03;;;3.80;1.00;;;;;;5013411;28;20044;-90
2022/02/26 06:44:55;;;;;;;10.90;5.00;;;3.90;99.90;;;;;;5031751;28;20021;-89
2022/02/26 06:47:21;;;;;;;12.18;5.00;;;3.60;99.90;;;;;;5031413;28;20033;-89
2022/02/26 06:49:46;;;;;;;11.50;4.80;;;3.50;99.90;;;;;;5031269;28;20024;-90
2022/02/26 06:52:12;;;;;;;12.50;4.97;;;3.70;1.00;;;;;;5031615;28;20036;-90
2022/02/26 06:54:38;;;;;;;13.63;4.82;;;3.70;1.00;;;;;;5031355;28;20379;-90
2022/02/26 06:57:04;;;;;;;11.30;4.80;;;3.80;99.90;;;;;;5032088;28;20037;-90
2022/02/26 06:59:31;;;;;;;13.55;5.03;;;3.80;1.00;;;;;;5031134;28;20033;-90
2022/02/26 07:01:56;;;;;;;13.07;5.30;;;3.90;1.00;;;;;;5031265;28;20033;-90
2022/02/26 07:04:22;;;;;;;13.88;5.40;;;3.80;99.90;;;;;;5015072;28;20029;-90
2022/02/26 07:06:48;;;;;;;16.88;5.30;;;4.60;99.90;;;;;;5013921;28;20030;-89
2022/02/26 07:09:16;;;;;;;10.35;5.20;;;4.60;99.90;;;;;;5031987;28;20398;-90
2022/02/26 07:11:44;;;;;;;11.27;5.10;;;4.00;1.00;;;;;;5031228;28;20172;-89
2022/02/26 07:14:11;;;;;;;12.93;5.00;;;4.00;1.00;;;;;;5030743;28;20536;-90
2022/02/26 07:16:37;;;;;;;13.25;5.63;;;3.80;1.00;;;;;;5031370;28;20091;-89
2022/02/26 07:19:04;;;;;;;10.35;5.45;;;4.20;1.00;;;;;;5031193;28;20529;-90
2022/02/26 07:21:30;;;;;;;13.23;5.35;;;3.60;1.00;;;;;;5031006;28;20021;-90
2022/02/26 07:23:56;;;;;;;12.90;5.65;;;4.10;99.90;;;;;;5013880;28;20478;-89
2022/02/26 07:26:26;;;;;;;9.65;4.70;;;3.90;99.90;;;;;;5030906;28;20021;-90
2022/02/26 07:28:52;;;;;;;10.82;4.80;;;4.10;1.00;;;;;;5030769;28;20053;-90
2022/02/26 07:31:18;;;;;;;15.85;5.70;;;4.30;1.00;;;;;;5031130;28;20107;-90
2022/02/26 07:33:44;;;;;;;15.05;5.75;;;4.80;1.00;;;;;;5014047;28;20065;-90
2022/02/26 07:36:10;;;;;;;11.18;4.95;;;4.70;99.90;;;;;;5031494;28;20493;-89
2022/02/26 07:38:36;;;;;;;11.10;4.63;;;4.90;1.00;;;;;;5030775;28;20045;-89
2022/02/26 07:41:02;;;;;;;14.70;4.88;;;4.90;1.00;;;;;;5016119;28;20453;-89
2022/02/26 07:43:28;;;;;;;7.60;3.90;;;4.90;1.00;;;;;;5014105;28;20017;-89
2022/02/26 07:45:55;;;;;;;8.48;4.55;;;4.50;1.00;;;;;;5030842;28;20037;-90
2022/02/26 07:48:21;;;;;;;10.38;4.38;;;4.90;1.00;;;;;;5031616;28;20052;-89
2022/02/26 07:50:46;;;;;;;7.90;3.55;;;4.30;99.90;;;;;;5031197;28;20052;-89
2022/02/26 07:53:12;;;;;;;9.57;4.47;;;4.20;1.00;;;;;;5031933;28;20537;-89
2022/02/26 07:55:39;;;;;;;10.52;4.20;;;4.70;99.90;;;;;;5034838;28;20589;-90
2022/02/26 07:58:06;;;;;;;9.50;3.75;;;4.30;1.00;;;;;;5018433;28;20127;-90
2022/02/26 08:00:31;;;;;;;11.48;4.55;;;4.20;1.00;;;;;;5034886;28;20502;-89
2022/02/26 08:03:00;;;;;;;8.13;3.65;;;4.20;1.00;;;;;;5033029;28;20028;-90
2022/02/26 08:05:27;;;;;;;8.95;3.92;;;4.20;1.00;;;;;;5018122;28;20116;-91
2022/02/26 08:07:53;;;;;;;8.07;4.03;;;4.30;1.00;;;;;;5019262;28;20033;-90
2022/02/26 08:10:21;;;;;;;9.85;3.80;;;4.40;99.90;;;;;;5018543;28;20425;-90
2022/02/26 08:12:48;;;;;;;11.60;4.97;;;4.30;1.00;;;;;;5034528;28;20449;-90
2022/02/26 08:15:14;;;;;;;13.60;5.53;;;4.40;1.00;;;;;;5030634;28;20064;-90
2022/02/26 08:17:43;;;;;;;13.38;4.43;;;5.00;99.90;;;;;;5033990;28;20052;-91
2022/02/26 08:20:09;;;;;;;9.48;3.85;;;4.70;1.00;;;;;;5034150;28;20418;-90
2022/02/26 08:22:35;;;;;;;7.53;4.22;;;4.70;99.90;;;;;;5017683;28;20033;-90
2022/02/26 08:25:01;;;;;;;7.85;3.78;;;5.30;99.90;;;;;;5017217;28;20105;-90
2022/02/26 08:27:26;;;;;;;7.05;4.15;;;5.30;1.00;;;;;;5034163;28;20508;-90
2022/02/26 08:29:52;;;;;;;7.70;3.92;;;5.30;1.00;;;;;;5034708;28;20525;-90
2022/02/26 08:32:18;;;;;;;9.63;4.70;;;5.80;99.90;;;;;;5017581;28;20033;-90
2022/02/26 08:34:44;;;;;;;11.60;4.45;;;6.00;99.90;;;;;;5033766;28;20033;-90
2022/02/26 08:37:09;;;;;;;8.85;4.70;;;6.20;99.90;;;;;;5033687;28;20494;-90
2022/02/26 08:39:35;;;;;;;9.02;4.15;;;6.80;99.90;;;;;;5033382;28;20033;-90
2022/02/26 08:42:01;;;;;;;9.23;4.40;;;7.20;1.00;;;;;;5034287;28;20022;-91
2022/02/26 08:44:27;;;;;;;9.95;4.20;;;8.10;99.90;;;;;;5033599;28;20124;-90
2022/02/26 08:46:53;;;;;;;8.23;4.50;;;9.30;99.90;;;;;;5033536;28;20025;-90
2022/02/26 08:49:18;;;;;;;8.82;4.03;;;9.60;99.90;;;;;;5017303;28;20021;-90
2022/02/26 08:51:44;;;;;;;9.30;4.05;;;9.80;1.00;;;;;;5033608;28;20041;-90
2022/02/26 08:54:10;;;;;;;8.40;3.83;;;10.00;99.90;;;;;;5033537;28;20482;-91
2022/02/26 08:56:35;;;;;;;7.35;3.75;;;10.90;99.90;;;;;;5033318;28;20493;-90
2022/02/26 08:59:01;;;;;;;7.30;3.72;;;10.80;99.90;;;;;;5033391;28;20091;-90
2022/02/26 09:01:27;;;;;;;8.02;4.13;;;11.10;99.90;;;;;;5033393;28;20028;-91
2022/02/26 09:03:53;;;;;;;8.93;3.70;;;11.70;99.90;;;;;;5033509;28;20033;-90
2022/02/26 09:06:19;;;;;;;8.05;4.20;;;12.40;99.90;;;;;;5015054;28;20108;-90
2022/02/26 09:08:44;;;;;;;7.72;4.18;;;12.20;99.90;;;;;;5033360;28;20026;-91
2022/02/26 09:11:11;;;;;;;6.40;3.83;;;12.10;99.90;;;;;;5018757;28;20083;-91
2022/02/26 09:13:42;;;;;;;8.25;4.13;;;12.90;99.90;;;;;;5033233;28;20167;-89
2022/02/26 09:16:09;;;;;;;6.93;3.72;;;12.60;99.90;;;;;;5033247;28;20029;-89
2022/02/26 09:18:35;;;;;;;6.97;3.85;;;12.90;99.90;;;;;;5032903;28;20399;-89
2022/02/26 09:21:01;;;;;;;7.57;3.63;;;13.60;99.90;;;;;;5033999;28;20037;-89
2022/02/26 09:23:28;;;;;;;5.85;4.05;;;14.20;99.90;;;;;;5032387;28;20083;-88
2022/02/26 09:25:54;;;;;;;7.70;3.90;;;14.30;99.90;;;;;;5032861;28;20120;-89
2022/02/26 09:28:20;;;;;;;6.40;3.55;;;15.00;99.90;;;;;;5033258;28;20026;-89
2022/02/26 09:30:45;;;;;;;6.53;3.88;;;14.70;99.90;;;;;;5017006;28;20030;-89
2022/02/26 09:33:12;;;;;;;6.63;3.60;;;14.90;99.90;;;;;;5033201;28;20022;-89
2022/02/26 09:35:37;;;;;;;6.60;3.70;;;15.10;99.90;;;;;;5022799;28;20422;-89
2022/02/26 09:38:03;;;;;;;6.43;4.22;;;16.20;99.90;;;;;;5031981;28;20064;-89
2022/02/26 09:40:28;;;;;;;7.30;4.15;;;16.10;99.90;;;;;;5032753;28;20036;-89
2022/02/26 09:42:55;;;;;;;7.65;4.40;;;16.70;99.90;;;;;;5032616;28;20077;-90
2022/02/26 09:45:21;;;;;;;7.47;4.50;;;16.20;99.90;;;;;;5032630;28;20471;-89
2022/02/26 09:47:47;;;;;;;9.45;5.38;;;16.50;99.90;;;;;;5032839;28;20026;-89
2022/02/26 09:50:12;;;;;;;8.60;5.18;;;17.00;99.90;;;;;;5017319;28;20037;-90
2022/02/26 09:52:42;;;;;;;9.32;5.15;;;16.80;99.90;;;;;;5032193;28;20021;-89
2022/02/26 09:55:09;;;;;;;6.82;4.70;;;16.70;99.90;;;;;;5032223;28;20450;-90
2022/02/26 09:57:35;;;;;;;7.82;4.72;;;17.10;99.90;;;;;;5032152;28;20091;-89
2022/02/26 10:00:01;;;;;;;7.60;4.80;;;17.70;99.90;;;;;;5014855;28;20026;-90
2022/02/26 10:02:31;;;;;;;6.50;4.35;;;17.60;99.90;;;;;;5017181;28;20120;-89
2022/02/26 10:04:58;;;;;;;7.07;4.80;;;17.70;99.90;;;;;;5017607;28;20029;-89
2022/02/26 10:07:26;;;;;;;6.65;4.30;;;18.00;99.90;;;;;;5031597;28;20026;-90
2022/02/26 10:09:53;;;;;;;8.40;4.70;;;17.90;99.90;;;;;;5031713;28;20056;-90
2022/02/26 10:12:24;;;;;;;9.38;5.63;;;18.40;99.90;;;;;;5032799;28;20025;-90
2022/02/26 10:14:51;;;;;;;6.90;4.18;;;18.30;99.90;;;;;;5032137;28;20033;-90
2022/02/26 10:17:39;;;;;;;8.45;4.47;;;19.30;99.90;;;;;;5031739;28;20052;-89
2022/02/26 10:20:17;;;;;;;7.18;4.40;;;19.80;99.90;;;;;;5031927;28;20029;-91
2022/02/26 10:22:48;;;;;;;6.90;4.55;;;18.30;99.90;;;;;;5031593;28;20033;-90
2022/02/26 10:25:18;;;;;;;7.70;4.32;;;18.90;99.90;;;;;;5031649;28;20040;-90
2022/02/26 10:27:48;;;;;;;6.43;4.20;;;19.90;99.90;;;;;;5031611;28;20030;-90
2022/02/26 10:30:26;;;;;;;6.82;4.13;;;21.20;99.90;;;;;;5027920;28;20076;-90
2022/02/26 10:33:04;;;;;;;6.55;3.78;;;22.20;99.90;;;;;;5015921;28;20421;-91
2022/02/26 10:35:43;;;;;;;7.43;4.30;;;22.30;99.90;;;;;;5031262;28;20026;-91
2022/02/26 10:38:18;;;;;;;5.35;4.15;;;21.90;99.90;;;;;;5031689;28;20049;-91
2022/02/26 10:40:55;;;;;;;5.93;4.03;;;22.00;99.90;;;;;;5031859;28;20100;-90
2022/02/26 10:43:44;;;;;;;9.00;4.57;;;22.00;99.90;;;;;;5031494;28;20032;-90
2022/02/26 10:46:20;;;;;;;6.45;4.13;;;22.80;99.90;;;;;;5031641;28;20025;-90
2022/02/26 10:48:46;;;;;;;7.20;4.10;;;23.20;99.90;;;;;;5031424;28;20053;-90
2022/02/26 10:51:23;;;;;;;5.88;3.50;;;22.90;99.90;;;;;;5031874;28;20030;-90
2022/02/26 10:53:50;;;;;;;7.63;4.32;;;23.50;99.90;;;;;;5031834;28;20022;-90
2022/02/26 10:56:16;;;;;;;5.32;3.67;;;23.70;99.90;;;;;;5031458;28;20033;-90
2022/02/26 10:58:43;;;;;;;5.82;3.83;;;23.50;99.90;;;;;;5031671;28;20033;-91
2022/02/26 11:01:11;;;;;;;5.68;3.90;;;24.00;99.90;;;;;;5031686;28;20021;-90
2022/02/26 11:03:38;;;;;;;5.22;3.70;;;24.20;99.90;;;;;;5031359;28;20049;-91
2022/02/26 11:06:05;;;;;;;4.95;3.90;;;24.10;99.90;;;;;;5031541;28;20429;-91
2022/02/26 11:08:31;;;;;;;5.50;3.95;;;22.90;99.90;;;;;;5031350;28;20117;-91
2022/02/26 11:10:58;;;;;;;6.95;4.03;;;23.40;99.90;;;;;;5031834;28;20502;-91
2022/02/26 11:13:24;;;;;;;4.95;3.97;;;23.60;99.90;;;;;;5031423;28;20438;-91
2022/02/26 11:15:55;;;;;;;7.53;3.78;;;23.00;99.90;;;;;;5031696;28;20578;-90
2022/02/26 11:18:25;;;;;;;6.38;3.53;;;23.70;99.90;;;;;;5031634;28;20099;-91
2022/02/26 11:20:50;;;;;;;4.78;3.60;;;22.60;99.90;;;;;;5030843;28;20114;-92
2022/02/26 11:23:17;;;;;;;4.55;3.53;;;24.00;99.90;;;;;;5014890;28;20116;-91
2022/02/26 11:25:45;;;;;;;5.90;3.67;;;24.20;99.90;;;;;;5014682;28;20029;-91
2022/02/26 11:28:13;;;;;;;5.13;3.85;;;24.40;99.90;;;;;;5032591;28;20432;-91
2022/02/26 11:30:48;;;;;;;5.25;3.38;;;24.70;99.90;;;;;;5035216;28;20171;-91
2022/02/26 11:33:14;;;;;;;4.88;3.22;;;24.50;99.90;;;;;;5018019;28;20029;-90
2022/02/26 11:35:57;;;;;;;4.72;2.95;;;25.60;99.90;;;;;;5034845;28;20013;-91
2022/02/26 11:38:24;;;;;;;6.45;3.60;;;26.50;99.90;;;;;;5030139;28;20053;-91
2022/02/26 11:41:12;;;;;;;6.72;5.28;;;26.10;99.90;;;;;;5034987;28;20028;-91
2022/02/26 11:43:39;;;;;;;5.15;3.80;;;26.20;99.90;;;;;;5035067;28;20025;-91
2022/02/26 11:46:17;;;;;;;5.20;3.65;;;26.00;99.90;;;;;;5018870;28;20053;-91
2022/02/26 11:48:43;;;;;;;4.43;3.25;;;25.60;99.90;;;;;;5016907;28;20477;-91
2022/02/26 11:51:14;;;;;;;7.03;3.45;;;25.30;99.90;;;;;;5035365;28;20112;-91
2022/02/26 11:53:42;;;;;;;5.40;3.90;;;25.60;99.90;;;;;;5034677;28;20029;-91
2022/02/26 11:56:08;;;;;;;5.40;3.50;;;25.70;99.90;;;;;;5034139;28;20030;-91
2022/02/26 11:58:37;;;;;;;4.57;3.80;;;25.50;99.90;;;;;;5035026;28;20038;-92
2022/02/26 12:01:14;;;;;;;4.68;3.30;;;24.80;99.90;;;;;;5034825;28;20501;-91
2022/02/26 12:03:44;;;;;;;6.18;3.65;;;26.10;99.90;;;;;;5016749;28;20379;-92
2022/02/26 12:06:09;;;;;;;4.65;3.03;;;25.60;99.90;;;;;;5035220;28;20048;-91
2022/02/26 12:08:45;;;;;;;4.35;3.10;;;24.00;99.90;;;;;;5034529;28;20037;-91
2022/02/26 12:11:19;;;;;;;5.85;3.20;;;25.40;99.90;;;;;;5034591;28;20367;-92
2022/02/26 12:13:49;;;;;;;4.25;3.20;;;25.30;99.90;;;;;;5035021;28;20079;-91
2022/02/26 12:16:20;;;;;;;4.93;2.70;;;25.00;99.90;;;;;;5034345;28;20045;-91
2022/02/26 12:18:53;;;;;;;3.78;2.63;;;24.80;99.90;;;;;;5016414;28;20041;-91
2022/02/26 12:21:19;;;;;;;4.22;2.95;;;25.70;99.90;;;;;;5014139;28;20052;-91
2022/02/26 12:24:07;;;;;;;4.05;2.97;;;26.40;99.90;;;;;;5034383;28;20030;-91
2022/02/26 12:26:43;;;;;;;3.65;2.60;;;25.10;99.90;;;;;;5034111;28;20026;-92
2022/02/26 12:29:09;;;;;;;3.95;2.63;;;24.90;99.90;;;;;;5034539;28;20030;-91
2022/02/26 12:31:57;;;;;;;4.72;2.90;;;25.70;99.90;;;;;;5033617;28;20068;-91
2022/02/26 12:34:25;;;;;;;5.18;2.95;;;26.10;99.90;;;;;;5017506;28;20049;-91
2022/02/26 12:37:13;;;;;;;4.80;3.08;;;26.00;99.90;;;;;;5033686;28;20037;-91
2022/02/26 12:39:40;;;;;;;5.70;2.63;;;25.40;99.90;;;;;;5033366;28;20052;-91
2022/02/26 12:42:08;;;;;;;4.85;2.75;;;25.10;99.90;;;;;;5034727;28;20091;-91
2022/02/26 12:44:38;;;;;;;4.50;3.15;;;25.40;99.90;;;;;;5033542;28;20064;-91
2022/02/26 12:47:08;;;;;;;4.57;3.13;;;25.90;99.90;;;;;;5018862;28;20486;-91
2022/02/26 12:49:34;;;;;;;4.38;2.80;;;25.70;99.90;;;;;;5033846;28;20116;-92
2022/02/26 12:52:00;;;;;;;4.80;3.03;;;25.40;99.90;;;;;;5016738;28;20044;-92